sensor_id;sensor_type;location;lat;lon;timestamp;temperature;humidity
1367;DHT22;16877;48.810;9.282;2023-11-19T00:02:25;15.50;87.20
1367;DHT22;16877;48.810;9.282;2023-11-19T00:04:53;16.00;91.40
1367;DHT22;16877;48.810;9.282;2023-11-19T00:07:20;15.60;92.20
1367;DHT22;16877;48.810;9.282;2023-11-19T00:09:46;15.80;88.50
1367;DHT22;16877;48.810;9.282;2023-11-19T00:12:13;15.70;91.60
1367;DHT22;16877;48.810;9.282;2023-11-19T00:14:40;15.90;91.10
1367;DHT22;16877;48.810;9.282;2023-11-19T00:17:07;15.90;91.70
1367;DHT22;16877;48.810;9.282;2023-11-19T00:19:33;15.70;90.30
1367;DHT22;16877;48.810;9.282;2023-11-19T00:22:02;15.70;91.50
1367;DHT22;16877;48.810;9.282;2023-11-19T00:24:29;15.80;87.70
1367;DHT22;16877;48.810;9.282;2023-11-19T00:26:56;15.70;92.20
1367;DHT22;16877;48.810;9.282;2023-11-19T00:29:22;15.90;90.70
1367;DHT22;16877;48.810;9.282;2023-11-19T00:31:50;16.10;92.00
1367;DHT22;16877;48.810;9.282;2023-11-19T00:34:16;15.90;92.70
1367;DHT22;16877;48.810;9.282;2023-11-19T00:36:47;16.10;92.30
1367;DHT22;16877;48.810;9.282;2023-11-19T00:39:15;15.80;92.30
1367;DHT22;16877;48.810;9.282;2023-11-19T00:41:43;15.90;92.50
1367;DHT22;16877;48.810;9.282;2023-11-19T00:44:11;15.90;89.20
1367;DHT22;16877;48.810;9.282;2023-11-19T00:46:38;15.90;88.20
1367;DHT22;16877;48.810;9.282;2023-11-19T00:49:04;15.90;88.20
1367;DHT22;16877;48.810;9.282;2023-11-19T00:51:31;15.90;86.50
1367;DHT22;16877;48.810;9.282;2023-11-19T00:53:58;15.80;86.50
1367;DHT22;16877;48.810;9.282;2023-11-19T00:56:27;15.90;85.80
1367;DHT22;16877;48.810;9.282;2023-11-19T00:58:54;16.00;86.20
1367;DHT22;16877;48.810;9.282;2023-11-19T01:01:21;16.00;85.90
1367;DHT22;16877;48.810;9.282;2023-11-19T01:03:48;16.00;85.20
1367;DHT22;16877;48.810;9.282;2023-11-19T01:06:15;16.00;85.10
1367;DHT22;16877;48.810;9.282;2023-11-19T01:08:42;16.00;85.40
1367;DHT22;16877;48.810;9.282;2023-11-19T01:11:19;16.00;84.80
1367;DHT22;16877;48.810;9.282;2023-11-19T01:13:48;16.10;84.40
1367;DHT22;16877;48.810;9.282;2023-11-19T01:16:15;15.90;84.20
1367;DHT22;16877;48.810;9.282;2023-11-19T01:18:42;16.20;84.10
1367;DHT22;16877;48.810;9.282;2023-11-19T01:21:08;16.20;84.50
1367;DHT22;16877;48.810;9.282;2023-11-19T01:23:35;16.10;84.10
1367;DHT22;16877;48.810;9.282;2023-11-19T01:26:02;16.00;83.90
1367;DHT22;16877;48.810;9.282;2023-11-19T01:28:30;16.20;84.20
1367;DHT22;16877;48.810;9.282;2023-11-19T01:30:58;16.50;84.90
1367;DHT22;16877;48.810;9.282;2023-11-19T01:33:25;16.30;84.20
1367;DHT22;16877;48.810;9.282;2023-11-19T01:35:53;16.30;83.70
1367;DHT22;16877;48.810;9.282;2023-11-19T01:38:20;16.20;83.30
1367;DHT22;16877;48.810;9.282;2023-11-19T01:40:46;16.40;84.00
1367;DHT22;16877;48.810;9.282;2023-11-19T01:43:31;16.30;83.70
1367;DHT22;16877;48.810;9.282;2023-11-19T01:45:59;16.30;83.60
1367;DHT22;16877;48.810;9.282;2023-11-19T01:48:26;16.40;84.00
1367;DHT22;16877;48.810;9.282;2023-11-19T01:50:54;16.20;83.60
1367;DHT22;16877;48.810;9.282;2023-11-19T01:53:21;16.50;84.20
1367;DHT22;16877;48.810;9.282;2023-11-19T01:55:48;16.50;84.00
1367;DHT22;16877;48.810;9.282;2023-11-19T01:58:15;16.50;84.00
1367;DHT22;16877;48.810;9.282;2023-11-19T02:00:43;16.40;84.60
1367;DHT22;16877;48.810;9.282;2023-11-19T02:03:12;16.50;83.90
1367;DHT22;16877;48.810;9.282;2023-11-19T02:05:39;16.60;84.00
1367;DHT22;16877;48.810;9.282;2023-11-19T02:08:06;16.70;84.00
1367;DHT22;16877;48.810;9.282;2023-11-19T02:10:33;16.60;84.00
1367;DHT22;16877;48.810;9.282;2023-11-19T02:13:01;16.90;85.30
1367;DHT22;16877;48.810;9.282;2023-11-19T02:15:27;16.60;84.60
1367;DHT22;16877;48.810;9.282;2023-11-19T02:17:54;16.50;84.10
1367;DHT22;16877;48.810;9.282;2023-11-19T02:20:22;16.60;84.70
1367;DHT22;16877;48.810;9.282;2023-11-19T02:22:51;16.50;84.10
1367;DHT22;16877;48.810;9.282;2023-11-19T02:25:22;16.60;85.00
1367;DHT22;16877;48.810;9.282;2023-11-19T02:27:53;16.70;84.40
1367;DHT22;16877;48.810;9.282;2023-11-19T02:30:24;16.60;84.70
1367;DHT22;16877;48.810;9.282;2023-11-19T02:32:52;16.70;84.60
1367;DHT22;16877;48.810;9.282;2023-11-19T02:35:19;16.60;84.80
1367;DHT22;16877;48.810;9.282;2023-11-19T02:37:47;16.90;84.60
1367;DHT22;16877;48.810;9.282;2023-11-19T02:40:14;16.70;85.00
1367;DHT22;16877;48.810;9.282;2023-11-19T02:42:40;16.90;85.00
1367;DHT22;16877;48.810;9.282;2023-11-19T02:45:09;16.90;84.20
1367;DHT22;16877;48.810;9.282;2023-11-19T02:47:39;17.00;84.80
1367;DHT22;16877;48.810;9.282;2023-11-19T02:50:07;17.00;84.00
1367;DHT22;16877;48.810;9.282;2023-11-19T02:52:40;16.90;84.10
1367;DHT22;16877;48.810;9.282;2023-11-19T02:55:07;16.80;83.90
1367;DHT22;16877;48.810;9.282;2023-11-19T02:57:37;16.90;84.50
1367;DHT22;16877;48.810;9.282;2023-11-19T03:00:07;16.90;83.90
1367;DHT22;16877;48.810;9.282;2023-11-19T03:02:40;17.00;84.00
1367;DHT22;16877;48.810;9.282;2023-11-19T03:05:11;16.90;83.90
1367;DHT22;16877;48.810;9.282;2023-11-19T03:07:40;17.00;84.50
1367;DHT22;16877;48.810;9.282;2023-11-19T03:10:08;17.00;84.10
1367;DHT22;16877;48.810;9.282;2023-11-19T03:12:38;17.10;84.20
1367;DHT22;16877;48.810;9.282;2023-11-19T03:15:05;17.10;83.90
1367;DHT22;16877;48.810;9.282;2023-11-19T03:17:32;17.00;84.10
1367;DHT22;16877;48.810;9.282;2023-11-19T03:20:00;17.10;84.60
1367;DHT22;16877;48.810;9.282;2023-11-19T03:22:27;17.00;84.40
1367;DHT22;16877;48.810;9.282;2023-11-19T03:24:54;17.40;84.80
1367;DHT22;16877;48.810;9.282;2023-11-19T03:27:20;17.00;84.80
1367;DHT22;16877;48.810;9.282;2023-11-19T03:29:47;17.30;84.90
1367;DHT22;16877;48.810;9.282;2023-11-19T03:32:14;17.10;84.50
1367;DHT22;16877;48.810;9.282;2023-11-19T03:34:40;17.20;84.90
1367;DHT22;16877;48.810;9.282;2023-11-19T03:37:08;17.00;85.00
1367;DHT22;16877;48.810;9.282;2023-11-19T03:39:35;17.10;84.80
1367;DHT22;16877;48.810;9.282;2023-11-19T03:42:02;17.30;85.50
1367;DHT22;16877;48.810;9.282;2023-11-19T03:44:29;17.20;85.10
1367;DHT22;16877;48.810;9.282;2023-11-19T03:46:56;17.30;84.80
1367;DHT22;16877;48.810;9.282;2023-11-19T03:49:22;17.30;85.90
1367;DHT22;16877;48.810;9.282;2023-11-19T03:51:50;17.20;85.80
1367;DHT22;16877;48.810;9.282;2023-11-19T03:54:18;17.30;86.80
1367;DHT22;16877;48.810;9.282;2023-11-19T03:56:45;17.10;87.30
1367;DHT22;16877;48.810;9.282;2023-11-19T03:59:12;17.20;87.60
1367;DHT22;16877;48.810;9.282;2023-11-19T04:01:40;17.30;88.00
1367;DHT22;16877;48.810;9.282;2023-11-19T04:04:07;17.10;88.20
1367;DHT22;16877;48.810;9.282;2023-11-19T04:06:34;17.30;89.20
1367;DHT22;16877;48.810;9.282;2023-11-19T04:09:01;17.20;89.10
1367;DHT22;16877;48.810;9.282;2023-11-19T04:11:29;17.30;88.00
1367;DHT22;16877;48.810;9.282;2023-11-19T04:13:55;17.30;88.50
1367;DHT22;16877;48.810;9.282;2023-11-19T04:16:26;17.30;88.50
1367;DHT22;16877;48.810;9.282;2023-11-19T04:18:53;17.30;88.60
1367;DHT22;16877;48.810;9.282;2023-11-19T04:21:20;17.40;88.20
1367;DHT22;16877;48.810;9.282;2023-11-19T04:23:48;17.10;88.50
1367;DHT22;16877;48.810;9.282;2023-11-19T04:26:15;17.30;88.30
1367;DHT22;16877;48.810;9.282;2023-11-19T04:28:43;17.10;88.80
1367;DHT22;16877;48.810;9.282;2023-11-19T04:31:10;17.30;90.30
1367;DHT22;16877;48.810;9.282;2023-11-19T04:33:36;17.20;90.40
1367;DHT22;16877;48.810;9.282;2023-11-19T04:36:04;17.00;90.00
1367;DHT22;16877;48.810;9.282;2023-11-19T04:38:30;17.20;90.50
1367;DHT22;16877;48.810;9.282;2023-11-19T04:40:57;17.50;90.10
1367;DHT22;16877;48.810;9.282;2023-11-19T04:43:24;17.30;89.90
1367;DHT22;16877;48.810;9.282;2023-11-19T04:45:52;17.20;90.80
1367;DHT22;16877;48.810;9.282;2023-11-19T04:48:19;17.10;91.20
1367;DHT22;16877;48.810;9.282;2023-11-19T04:50:45;17.30;91.90
1367;DHT22;16877;48.810;9.282;2023-11-19T04:53:12;17.20;90.80
1367;DHT22;16877;48.810;9.282;2023-11-19T04:55:40;17.30;92.20
1367;DHT22;16877;48.810;9.282;2023-11-19T04:58:07;17.30;90.80
1367;DHT22;16877;48.810;9.282;2023-11-19T05:00:34;17.20;90.40
1367;DHT22;16877;48.810;9.282;2023-11-19T05:03:02;17.40;90.10
1367;DHT22;16877;48.810;9.282;2023-11-19T05:05:29;17.40;90.00
1367;DHT22;16877;48.810;9.282;2023-11-19T05:07:57;17.20;90.00
1367;DHT22;16877;48.810;9.282;2023-11-19T05:10:23;17.50;90.00
1367;DHT22;16877;48.810;9.282;2023-11-19T05:12:50;17.40;90.00
1367;DHT22;16877;48.810;9.282;2023-11-19T05:15:17;17.70;90.40
1367;DHT22;16877;48.810;9.282;2023-11-19T05:17:43;17.40;90.10
1367;DHT22;16877;48.810;9.282;2023-11-19T05:20:12;17.30;89.70
1367;DHT22;16877;48.810;9.282;2023-11-19T05:22:39;17.50;90.20
1367;DHT22;16877;48.810;9.282;2023-11-19T05:25:07;17.50;90.00
1367;DHT22;16877;48.810;9.282;2023-11-19T05:27:34;17.50;89.60
1367;DHT22;16877;48.810;9.282;2023-11-19T05:30:01;17.80;90.10
1367;DHT22;16877;48.810;9.282;2023-11-19T05:32:28;17.60;89.40
1367;DHT22;16877;48.810;9.282;2023-11-19T05:34:54;17.50;89.60
1367;DHT22;16877;48.810;9.282;2023-11-19T05:37:23;17.40;89.50
1367;DHT22;16877;48.810;9.282;2023-11-19T05:39:50;17.70;89.10
1367;DHT22;16877;48.810;9.282;2023-11-19T05:42:17;17.60;89.40
1367;DHT22;16877;48.810;9.282;2023-11-19T05:44:44;17.60;89.00
1367;DHT22;16877;48.810;9.282;2023-11-19T05:47:11;17.60;90.10
1367;DHT22;16877;48.810;9.282;2023-11-19T05:49:38;17.70;89.50
1367;DHT22;16877;48.810;9.282;2023-11-19T05:52:05;17.40;90.70
1367;DHT22;16877;48.810;9.282;2023-11-19T05:54:34;17.60;88.60
1367;DHT22;16877;48.810;9.282;2023-11-19T05:57:03;17.80;88.60
1367;DHT22;16877;48.810;9.282;2023-11-19T05:59:30;17.60;88.10
1367;DHT22;16877;48.810;9.282;2023-11-19T06:01:58;17.70;88.70
1367;DHT22;16877;48.810;9.282;2023-11-19T06:04:25;18.00;88.80
1367;DHT22;16877;48.810;9.282;2023-11-19T06:06:52;18.00;89.00
1367;DHT22;16877;48.810;9.282;2023-11-19T06:09:20;17.40;88.30
1367;DHT22;16877;48.810;9.282;2023-11-19T06:11:50;17.60;88.50
1367;DHT22;16877;48.810;9.282;2023-11-19T06:14:17;17.50;88.00
1367;DHT22;16877;48.810;9.282;2023-11-19T06:16:44;17.60;88.50
1367;DHT22;16877;48.810;9.282;2023-11-19T06:19:11;17.60;89.60
1367;DHT22;16877;48.810;9.282;2023-11-19T06:21:38;17.60;89.00
1367;DHT22;16877;48.810;9.282;2023-11-19T06:24:05;17.60;88.60
1367;DHT22;16877;48.810;9.282;2023-11-19T06:26:32;17.40;88.20
1367;DHT22;16877;48.810;9.282;2023-11-19T06:29:01;17.40;88.40
1367;DHT22;16877;48.810;9.282;2023-11-19T06:31:28;17.50;88.30
1367;DHT22;16877;48.810;9.282;2023-11-19T06:33:54;17.50;88.40
1367;DHT22;16877;48.810;9.282;2023-11-19T06:36:21;17.70;88.70
1367;DHT22;16877;48.810;9.282;2023-11-19T06:38:48;17.60;88.50
1367;DHT22;16877;48.810;9.282;2023-11-19T06:41:14;17.50;88.00
1367;DHT22;16877;48.810;9.282;2023-11-19T06:43:41;17.70;88.20
1367;DHT22;16877;48.810;9.282;2023-11-19T06:46:15;17.80;87.80
1367;DHT22;16877;48.810;9.282;2023-11-19T06:48:42;18.00;87.60
1367;DHT22;16877;48.810;9.282;2023-11-19T06:51:10;17.70;86.80
1367;DHT22;16877;48.810;9.282;2023-11-19T06:53:36;17.70;87.00
1367;DHT22;16877;48.810;9.282;2023-11-19T06:56:05;17.80;86.90
1367;DHT22;16877;48.810;9.282;2023-11-19T06:58:35;17.80;87.00
1367;DHT22;16877;48.810;9.282;2023-11-19T07:01:01;17.60;87.00
1367;DHT22;16877;48.810;9.282;2023-11-19T07:03:29;17.70;87.00
1367;DHT22;16877;48.810;9.282;2023-11-19T07:05:56;18.10;87.40
1367;DHT22;16877;48.810;9.282;2023-11-19T07:08:23;17.70;88.30
1367;DHT22;16877;48.810;9.282;2023-11-19T07:10:49;17.80;87.90
1367;DHT22;16877;48.810;9.282;2023-11-19T07:13:16;17.90;87.50
1367;DHT22;16877;48.810;9.282;2023-11-19T07:15:42;17.90;87.70
1367;DHT22;16877;48.810;9.282;2023-11-19T07:18:09;17.90;88.20
1367;DHT22;16877;48.810;9.282;2023-11-19T07:20:38;17.70;87.70
1367;DHT22;16877;48.810;9.282;2023-11-19T07:23:05;18.00;87.90
1367;DHT22;16877;48.810;9.282;2023-11-19T07:25:32;17.90;88.20
1367;DHT22;16877;48.810;9.282;2023-11-19T07:28:00;18.10;88.50
1367;DHT22;16877;48.810;9.282;2023-11-19T07:30:30;17.70;87.80
1367;DHT22;16877;48.810;9.282;2023-11-19T07:32:57;17.80;88.00
1367;DHT22;16877;48.810;9.282;2023-11-19T07:35:23;18.10;89.30
1367;DHT22;16877;48.810;9.282;2023-11-19T07:37:51;17.80;89.10
1367;DHT22;16877;48.810;9.282;2023-11-19T07:40:18;17.80;89.50
1367;DHT22;16877;48.810;9.282;2023-11-19T07:42:45;17.80;89.40
1367;DHT22;16877;48.810;9.282;2023-11-19T07:45:12;17.80;90.00
1367;DHT22;16877;48.810;9.282;2023-11-19T07:47:38;18.00;90.00
1367;DHT22;16877;48.810;9.282;2023-11-19T07:50:06;17.70;89.60
1367;DHT22;16877;48.810;9.282;2023-11-19T07:52:33;17.90;89.30
1367;DHT22;16877;48.810;9.282;2023-11-19T07:55:01;17.80;89.90
1367;DHT22;16877;48.810;9.282;2023-11-19T07:57:27;17.90;90.00
1367;DHT22;16877;48.810;9.282;2023-11-19T07:59:56;17.60;89.60
1367;DHT22;16877;48.810;9.282;2023-11-19T08:02:23;18.00;89.60
1367;DHT22;16877;48.810;9.282;2023-11-19T08:04:49;17.80;90.00
1367;DHT22;16877;48.810;9.282;2023-11-19T08:07:17;18.00;90.00
1367;DHT22;16877;48.810;9.282;2023-11-19T08:09:44;17.90;88.90
1367;DHT22;16877;48.810;9.282;2023-11-19T08:12:12;18.10;89.10
1367;DHT22;16877;48.810;9.282;2023-11-19T08:14:40;18.10;89.70
1367;DHT22;16877;48.810;9.282;2023-11-19T08:17:06;18.20;89.20
1367;DHT22;16877;48.810;9.282;2023-11-19T08:19:33;18.40;89.30
1367;DHT22;16877;48.810;9.282;2023-11-19T08:22:00;17.80;88.20
1367;DHT22;16877;48.810;9.282;2023-11-19T08:24:27;18.20;88.70
1367;DHT22;16877;48.810;9.282;2023-11-19T08:26:54;18.40;89.10
1367;DHT22;16877;48.810;9.282;2023-11-19T08:29:22;18.10;88.60
1367;DHT22;16877;48.810;9.282;2023-11-19T08:31:49;18.20;88.90
1367;DHT22;16877;48.810;9.282;2023-11-19T08:34:15;18.10;88.70
1367;DHT22;16877;48.810;9.282;2023-11-19T08:36:42;18.30;88.70
1367;DHT22;16877;48.810;9.282;2023-11-19T08:39:09;18.60;88.60
1367;DHT22;16877;48.810;9.282;2023-11-19T08:41:36;18.40;88.00
1367;DHT22;16877;48.810;9.282;2023-11-19T08:44:04;18.50;87.40
1367;DHT22;16877;48.810;9.282;2023-11-19T08:46:32;18.60;87.90
1367;DHT22;16877;48.810;9.282;2023-11-19T08:48:59;18.70;88.20
1367;DHT22;16877;48.810;9.282;2023-11-19T08:51:25;18.80;88.20
1367;DHT22;16877;48.810;9.282;2023-11-19T08:53:53;18.70;88.70
1367;DHT22;16877;48.810;9.282;2023-11-19T08:56:21;19.00;88.30
1367;DHT22;16877;48.810;9.282;2023-11-19T08:58:47;18.90;88.90
1367;DHT22;16877;48.810;9.282;2023-11-19T09:01:14;18.90;88.00
1367;DHT22;16877;48.810;9.282;2023-11-19T09:03:42;18.80;87.60
1367;DHT22;16877;48.810;9.282;2023-11-19T09:06:09;19.00;87.50
1367;DHT22;16877;48.810;9.282;2023-11-19T09:08:36;19.00;87.60
1367;DHT22;16877;48.810;9.282;2023-11-19T09:11:07;18.90;87.20
1367;DHT22;16877;48.810;9.282;2023-11-19T09:13:34;19.20;87.00
1367;DHT22;16877;48.810;9.282;2023-11-19T09:16:00;19.30;87.70
1367;DHT22;16877;48.810;9.282;2023-11-19T09:18:29;19.80;88.50
1367;DHT22;16877;48.810;9.282;2023-11-19T09:20:57;19.70;87.90
1367;DHT22;16877;48.810;9.282;2023-11-19T09:23:23;20.00;87.50
1367;DHT22;16877;48.810;9.282;2023-11-19T09:25:50;19.80;85.80
1367;DHT22;16877;48.810;9.282;2023-11-19T09:28:17;19.90;85.50
1367;DHT22;16877;48.810;9.282;2023-11-19T09:30:43;19.70;85.30
1367;DHT22;16877;48.810;9.282;2023-11-19T09:33:10;19.80;85.20
1367;DHT22;16877;48.810;9.282;2023-11-19T09:35:37;19.90;85.30
1367;DHT22;16877;48.810;9.282;2023-11-19T09:38:05;19.60;85.50
1367;DHT22;16877;48.810;9.282;2023-11-19T09:40:32;19.80;87.10
1367;DHT22;16877;48.810;9.282;2023-11-19T09:42:58;19.60;85.20
1367;DHT22;16877;48.810;9.282;2023-11-19T09:45:27;19.60;84.50
1367;DHT22;16877;48.810;9.282;2023-11-19T09:47:55;19.90;84.80
1367;DHT22;16877;48.810;9.282;2023-11-19T09:50:23;19.80;83.90
1367;DHT22;16877;48.810;9.282;2023-11-19T09:52:50;20.10;83.80
1367;DHT22;16877;48.810;9.282;2023-11-19T09:55:18;20.30;83.70
1367;DHT22;16877;48.810;9.282;2023-11-19T09:57:47;20.60;84.30
1367;DHT22;16877;48.810;9.282;2023-11-19T10:00:17;20.70;84.20
1367;DHT22;16877;48.810;9.282;2023-11-19T10:02:44;20.60;84.10
1367;DHT22;16877;48.810;9.282;2023-11-19T10:05:12;20.80;84.60
1367;DHT22;16877;48.810;9.282;2023-11-19T10:07:40;20.90;84.70
1367;DHT22;16877;48.810;9.282;2023-11-19T10:10:07;20.90;84.10
1367;DHT22;16877;48.810;9.282;2023-11-19T10:12:37;21.50;83.50
1367;DHT22;16877;48.810;9.282;2023-11-19T10:15:06;21.60;85.20
1367;DHT22;16877;48.810;9.282;2023-11-19T10:17:36;21.80;83.00
1367;DHT22;16877;48.810;9.282;2023-11-19T10:20:03;22.20;83.30
1367;DHT22;16877;48.810;9.282;2023-11-19T10:22:30;22.30;83.20
1367;DHT22;16877;48.810;9.282;2023-11-19T10:24:57;22.60;82.30
1367;DHT22;16877;48.810;9.282;2023-11-19T10:27:24;22.70;81.60
1367;DHT22;16877;48.810;9.282;2023-11-19T10:29:52;22.80;80.70
1367;DHT22;16877;48.810;9.282;2023-11-19T10:32:19;23.20;80.50
1367;DHT22;16877;48.810;9.282;2023-11-19T10:34:46;23.00;79.90
1367;DHT22;16877;48.810;9.282;2023-11-19T10:37:27;23.00;79.20
1367;DHT22;16877;48.810;9.282;2023-11-19T10:39:55;23.40;81.00
1367;DHT22;16877;48.810;9.282;2023-11-19T10:42:22;23.30;80.90
1367;DHT22;16877;48.810;9.282;2023-11-19T10:44:48;23.30;80.30
1367;DHT22;16877;48.810;9.282;2023-11-19T10:47:19;23.80;80.20
1367;DHT22;16877;48.810;9.282;2023-11-19T10:49:46;24.00;80.00
1367;DHT22;16877;48.810;9.282;2023-11-19T10:52:17;24.20;78.50
1367;DHT22;16877;48.810;9.282;2023-11-19T10:54:44;24.50;77.50
1367;DHT22;16877;48.810;9.282;2023-11-19T10:57:19;25.20;76.40
1367;DHT22;16877;48.810;9.282;2023-11-19T10:59:46;25.30;74.80
1367;DHT22;16877;48.810;9.282;2023-11-19T11:02:21;25.00;74.40
1367;DHT22;16877;48.810;9.282;2023-11-19T11:04:50;25.30;74.30
1367;DHT22;16877;48.810;9.282;2023-11-19T11:07:21;25.30;73.70
1367;DHT22;16877;48.810;9.282;2023-11-19T11:09:51;25.00;72.20
1367;DHT22;16877;48.810;9.282;2023-11-19T11:12:22;25.20;73.60
1367;DHT22;16877;48.810;9.282;2023-11-19T11:14:49;25.20;72.40
1367;DHT22;16877;48.810;9.282;2023-11-19T11:17:17;25.00;69.20
1367;DHT22;16877;48.810;9.282;2023-11-19T11:19:45;24.40;70.60
1367;DHT22;16877;48.810;9.282;2023-11-19T11:22:14;24.10;73.10
1367;DHT22;16877;48.810;9.282;2023-11-19T11:25:06;24.00;70.40
1367;DHT22;16877;48.810;9.282;2023-11-19T11:28:04;24.10;69.30
1367;DHT22;16877;48.810;9.282;2023-11-19T11:30:42;23.70;68.20
1367;DHT22;16877;48.810;9.282;2023-11-19T11:33:24;23.80;68.90
1367;DHT22;16877;48.810;9.282;2023-11-19T11:36:01;23.60;68.70
1367;DHT22;16877;48.810;9.282;2023-11-19T11:38:36;23.30;68.40
1367;DHT22;16877;48.810;9.282;2023-11-19T11:41:18;23.70;68.90
1367;DHT22;16877;48.810;9.282;2023-11-19T11:43:46;23.10;68.20
1367;DHT22;16877;48.810;9.282;2023-11-19T11:49:25;23.60;68.20
1367;DHT22;16877;48.810;9.282;2023-11-19T11:52:00;23.90;68.70
1367;DHT22;16877;48.810;9.282;2023-11-19T11:54:28;23.80;68.70
1367;DHT22;16877;48.810;9.282;2023-11-19T11:57:10;23.60;68.00
1367;DHT22;16877;48.810;9.282;2023-11-19T11:59:42;24.10;68.80
1367;DHT22;16877;48.810;9.282;2023-11-19T12:02:10;23.80;68.30
1367;DHT22;16877;48.810;9.282;2023-11-19T12:04:37;23.90;67.70
1367;DHT22;16877;48.810;9.282;2023-11-19T12:07:06;23.90;66.90
1367;DHT22;16877;48.810;9.282;2023-11-19T12:09:33;24.00;67.50
1367;DHT22;16877;48.810;9.282;2023-11-19T12:12:21;24.10;66.70
1367;DHT22;16877;48.810;9.282;2023-11-19T12:15:02;24.20;66.70
1367;DHT22;16877;48.810;9.282;2023-11-19T12:17:37;24.20;67.20
1367;DHT22;16877;48.810;9.282;2023-11-19T12:20:10;24.50;67.00
1367;DHT22;16877;48.810;9.282;2023-11-19T12:22:39;24.20;66.90
1367;DHT22;16877;48.810;9.282;2023-11-19T12:25:07;24.20;66.70
1367;DHT22;16877;48.810;9.282;2023-11-19T12:27:34;24.20;66.40
1367;DHT22;16877;48.810;9.282;2023-11-19T12:30:01;24.10;66.60
1367;DHT22;16877;48.810;9.282;2023-11-19T12:32:37;24.20;66.40
1367;DHT22;16877;48.810;9.282;2023-11-19T12:35:05;23.90;65.80
1367;DHT22;16877;48.810;9.282;2023-11-19T12:37:32;24.20;66.40
1367;DHT22;16877;48.810;9.282;2023-11-19T12:40:14;24.40;66.10
1367;DHT22;16877;48.810;9.282;2023-11-19T12:42:44;23.90;64.90
1367;DHT22;16877;48.810;9.282;2023-11-19T12:45:11;24.30;63.40
1367;DHT22;16877;48.810;9.282;2023-11-19T12:47:39;24.30;64.30
1367;DHT22;16877;48.810;9.282;2023-11-19T12:50:07;24.30;64.40
1367;DHT22;16877;48.810;9.282;2023-11-19T12:52:34;24.50;64.00
1367;DHT22;16877;48.810;9.282;2023-11-19T12:55:01;24.50;62.80
1367;DHT22;16877;48.810;9.282;2023-11-19T12:57:39;25.00;63.10
1367;DHT22;16877;48.810;9.282;2023-11-19T13:00:07;25.40;62.60
1367;DHT22;16877;48.810;9.282;2023-11-19T13:02:45;25.20;61.90
1367;DHT22;16877;48.810;9.282;2023-11-19T13:05:26;25.70;60.00
1367;DHT22;16877;48.810;9.282;2023-11-19T13:08:01;25.90;60.50
1367;DHT22;16877;48.810;9.282;2023-11-19T13:10:28;26.30;59.50
1367;DHT22;16877;48.810;9.282;2023-11-19T13:13:07;26.80;59.10
1367;DHT22;16877;48.810;9.282;2023-11-19T13:15:34;27.00;59.60
1367;DHT22;16877;48.810;9.282;2023-11-19T13:18:02;27.10;59.10
1367;DHT22;16877;48.810;9.282;2023-11-19T13:20:29;27.30;58.80
1367;DHT22;16877;48.810;9.282;2023-11-19T13:22:57;28.00;58.50
1367;DHT22;16877;48.810;9.282;2023-11-19T13:25:25;28.30;58.10
1367;DHT22;16877;48.810;9.282;2023-11-19T13:27:52;27.40;57.10
1367;DHT22;16877;48.810;9.282;2023-11-19T13:30:20;27.00;59.50
1367;DHT22;16877;48.810;9.282;2023-11-19T13:32:47;26.50;60.20
1367;DHT22;16877;48.810;9.282;2023-11-19T13:35:14;26.40;58.90
1367;DHT22;16877;48.810;9.282;2023-11-19T13:37:42;25.70;59.90
1367;DHT22;16877;48.810;9.282;2023-11-19T13:40:10;25.50;59.30
1367;DHT22;16877;48.810;9.282;2023-11-19T13:42:39;24.60;58.70
1367;DHT22;16877;48.810;9.282;2023-11-19T13:45:08;24.40;59.10
1367;DHT22;16877;48.810;9.282;2023-11-19T13:47:38;23.90;60.90
1367;DHT22;16877;48.810;9.282;2023-11-19T13:50:07;23.90;59.70
1367;DHT22;16877;48.810;9.282;2023-11-19T13:52:34;24.00;60.50
1367;DHT22;16877;48.810;9.282;2023-11-19T13:55:02;23.90;60.10
1367;DHT22;16877;48.810;9.282;2023-11-19T13:57:30;24.40;60.50
1367;DHT22;16877;48.810;9.282;2023-11-19T13:59:57;24.80;61.90
1367;DHT22;16877;48.810;9.282;2023-11-19T14:02:24;25.00;59.60
1367;DHT22;16877;48.810;9.282;2023-11-19T14:04:52;25.90;59.50
1367;DHT22;16877;48.810;9.282;2023-11-19T14:07:19;26.30;58.50
1367;DHT22;16877;48.810;9.282;2023-11-19T14:09:46;26.70;57.90
1367;DHT22;16877;48.810;9.282;2023-11-19T14:12:12;26.70;57.30
1367;DHT22;16877;48.810;9.282;2023-11-19T14:14:39;26.60;55.90
1367;DHT22;16877;48.810;9.282;2023-11-19T14:17:07;27.00;55.60
1367;DHT22;16877;48.810;9.282;2023-11-19T14:19:34;26.60;55.60
1367;DHT22;16877;48.810;9.282;2023-11-19T14:22:02;26.20;55.20
1367;DHT22;16877;48.810;9.282;2023-11-19T14:24:29;26.30;55.30
1367;DHT22;16877;48.810;9.282;2023-11-19T14:26:56;26.00;54.80
1367;DHT22;16877;48.810;9.282;2023-11-19T14:29:24;26.20;54.90
1367;DHT22;16877;48.810;9.282;2023-11-19T14:31:51;25.90;54.60
1367;DHT22;16877;48.810;9.282;2023-11-19T14:34:19;25.90;54.40
1367;DHT22;16877;48.810;9.282;2023-11-19T14:36:46;26.10;55.00
1367;DHT22;16877;48.810;9.282;2023-11-19T14:39:15;26.10;54.60
1367;DHT22;16877;48.810;9.282;2023-11-19T14:41:42;26.40;54.60
1367;DHT22;16877;48.810;9.282;2023-11-19T14:44:10;26.30;55.80
1367;DHT22;16877;48.810;9.282;2023-11-19T14:46:37;26.50;54.80
1367;DHT22;16877;48.810;9.282;2023-11-19T14:49:03;26.60;55.20
1367;DHT22;16877;48.810;9.282;2023-11-19T14:51:31;26.30;55.30
1367;DHT22;16877;48.810;9.282;2023-11-19T14:53:58;26.60;55.10
1367;DHT22;16877;48.810;9.282;2023-11-19T14:56:26;26.60;55.30
1367;DHT22;16877;48.810;9.282;2023-11-19T14:58:53;26.70;55.50
1367;DHT22;16877;48.810;9.282;2023-11-19T15:01:20;26.90;55.90
1367;DHT22;16877;48.810;9.282;2023-11-19T15:03:47;27.10;55.30
1367;DHT22;16877;48.810;9.282;2023-11-19T15:06:13;27.00;55.20
1367;DHT22;16877;48.810;9.282;2023-11-19T15:08:41;27.00;55.50
1367;DHT22;16877;48.810;9.282;2023-11-19T15:11:11;27.00;55.00
1367;DHT22;16877;48.810;9.282;2023-11-19T15:13:40;27.00;55.30
1367;DHT22;16877;48.810;9.282;2023-11-19T15:16:08;27.00;55.60
1367;DHT22;16877;48.810;9.282;2023-11-19T15:18:39;27.00;55.60
1367;DHT22;16877;48.810;9.282;2023-11-19T15:21:13;26.80;55.70
1367;DHT22;16877;48.810;9.282;2023-11-19T15:23:45;26.70;55.30
1367;DHT22;16877;48.810;9.282;2023-11-19T15:26:13;26.50;55.70
1367;DHT22;16877;48.810;9.282;2023-11-19T15:31:33;25.90;55.50
1367;DHT22;16877;48.810;9.282;2023-11-19T15:34:00;25.30;55.40
1367;DHT22;16877;48.810;9.282;2023-11-19T15:36:28;25.50;56.00
1367;DHT22;16877;48.810;9.282;2023-11-19T15:38:55;25.20;56.00
1367;DHT22;16877;48.810;9.282;2023-11-19T15:41:22;24.80;56.30
1367;DHT22;16877;48.810;9.282;2023-11-19T15:43:50;24.40;56.10
1367;DHT22;16877;48.810;9.282;2023-11-19T15:46:17;24.00;55.30
1367;DHT22;16877;48.810;9.282;2023-11-19T15:48:44;23.70;55.80
1367;DHT22;16877;48.810;9.282;2023-11-19T15:51:11;23.70;56.80
1367;DHT22;16877;48.810;9.282;2023-11-19T15:53:37;23.60;56.50
1367;DHT22;16877;48.810;9.282;2023-11-19T15:56:05;23.50;56.70
1367;DHT22;16877;48.810;9.282;2023-11-19T15:58:31;23.30;57.00